createdAt,value
2023-04-28T00:01:53.948Z,11.52
2023-04-28T00:04:21.907Z,11.50
2023-04-28T00:06:49.581Z,11.50
2023-04-28T00:09:16.935Z,11.50
2023-04-28T00:11:47.464Z,11.49
2023-04-28T00:14:14.994Z,11.48
2023-04-28T00:16:43.120Z,11.48
2023-04-28T00:19:10.673Z,11.46
2023-04-28T00:21:37.913Z,11.44
2023-04-28T00:24:05.761Z,11.43
2023-04-28T00:26:33.026Z,11.43
2023-04-28T00:29:00.385Z,11.44
2023-04-28T00:31:27.755Z,11.45
2023-04-28T00:33:55.089Z,11.45
2023-04-28T00:36:22.648Z,11.46
2023-04-28T00:38:50.017Z,11.46
2023-04-28T00:41:17.365Z,11.46
2023-04-28T00:43:46.725Z,11.47
2023-04-28T00:46:21.476Z,11.47
2023-04-28T00:48:49.479Z,11.46
2023-04-28T00:51:17.891Z,11.45
2023-04-28T00:53:46.118Z,11.45
2023-04-28T00:56:13.510Z,11.45
2023-04-28T00:58:41.023Z,11.44
2023-04-28T01:01:10.050Z,11.41
2023-04-28T01:03:39.019Z,11.40
2023-04-28T01:06:07.803Z,11.39
2023-04-28T01:08:36.731Z,11.38
2023-04-28T01:11:07.228Z,11.36
2023-04-28T01:13:53.013Z,11.36
2023-04-28T01:16:20.995Z,11.36
2023-04-28T01:18:48.644Z,11.37
2023-04-28T01:21:15.984Z,11.39
2023-04-28T01:23:46.746Z,11.39
2023-04-28T01:26:14.086Z,11.38
2023-04-28T01:28:41.636Z,11.37
2023-04-28T01:31:09.139Z,11.37
2023-04-28T01:33:37.264Z,11.35
2023-04-28T01:36:05.132Z,11.33
2023-04-28T01:38:32.485Z,11.33
2023-04-28T01:41:00.062Z,11.34
2023-04-28T01:43:27.400Z,11.34
2023-04-28T01:45:54.776Z,11.33
2023-04-28T01:48:22.115Z,11.34
2023-04-28T01:50:49.363Z,11.34
2023-04-28T01:53:20.812Z,11.34
2023-04-28T01:55:50.108Z,11.34
2023-04-28T01:58:18.182Z,11.35
2023-04-28T02:00:45.638Z,11.36
2023-04-28T02:03:14.163Z,11.36
2023-04-28T02:05:41.683Z,11.35
2023-04-28T02:08:08.933Z,11.34
2023-04-28T02:10:36.388Z,11.35
2023-04-28T02:13:03.639Z,11.35
2023-04-28T02:15:30.891Z,11.35
2023-04-28T02:17:58.202Z,11.37
2023-04-28T02:20:27.453Z,11.38
2023-04-28T02:22:55.215Z,11.39
2023-04-28T02:25:22.564Z,11.39
2023-04-28T02:27:49.914Z,11.38
2023-04-28T02:30:17.493Z,11.39
2023-04-28T02:32:44.845Z,11.41
2023-04-28T02:35:12.385Z,11.43
2023-04-28T02:37:39.746Z,11.45
2023-04-28T02:40:08.079Z,11.46
2023-04-28T02:42:35.371Z,11.46
2023-04-28T02:45:02.829Z,11.46
2023-04-28T02:47:30.099Z,11.45
2023-04-28T02:49:57.432Z,11.45
2023-04-28T02:52:24.688Z,11.44
2023-04-28T02:54:54.910Z,11.43
2023-04-28T02:57:22.163Z,11.43
2023-04-28T02:59:49.638Z,11.40
2023-04-28T03:02:17.433Z,11.39
2023-04-28T03:04:44.954Z,11.39
2023-04-28T03:07:12.299Z,11.40
2023-04-28T03:09:40.556Z,11.41
2023-04-28T03:12:09.463Z,11.42
2023-04-28T03:14:36.861Z,11.41
2023-04-28T03:17:04.173Z,11.42
2023-04-28T03:19:33.421Z,11.41
2023-04-28T03:22:00.730Z,11.43
2023-04-28T03:24:28.091Z,11.43
2023-04-28T03:26:55.430Z,11.44
2023-04-28T03:29:24.730Z,11.44
2023-04-28T03:31:52.211Z,11.43
2023-04-28T03:34:19.544Z,11.44
2023-04-28T03:36:46.906Z,11.46
2023-04-28T03:39:21.127Z,11.43
2023-04-28T03:41:48.573Z,11.42
2023-04-28T03:44:34.803Z,11.40
2023-04-28T03:47:02.329Z,11.41
2023-04-28T03:49:30.092Z,11.39
2023-04-28T03:51:57.655Z,11.39
2023-04-28T03:54:25.723Z,11.37
2023-04-28T03:56:53.084Z,11.34
2023-04-28T03:59:20.434Z,11.31
2023-04-28T04:01:49.741Z,11.29
2023-04-28T04:04:17.468Z,11.29
2023-04-28T04:06:45.464Z,11.29
2023-04-28T04:09:13.021Z,11.30
2023-04-28T04:11:41.205Z,11.30
2023-04-28T04:14:08.552Z,11.30
2023-04-28T04:16:37.175Z,11.28
2023-04-28T04:19:05.014Z,11.28
2023-04-28T04:21:42.597Z,11.27
2023-04-28T04:24:09.961Z,11.27
2023-04-28T04:26:38.147Z,11.29
2023-04-28T04:29:18.704Z,11.32
2023-04-28T04:31:46.271Z,11.34
2023-04-28T04:34:13.944Z,11.35
2023-04-28T04:36:41.978Z,11.39
2023-04-28T04:39:09.944Z,11.41
2023-04-28T04:41:37.201Z,11.44
2023-04-28T04:44:23.088Z,11.47
2023-04-28T04:46:50.827Z,11.47
2023-04-28T04:49:18.510Z,11.49
2023-04-28T04:51:45.895Z,11.50
2023-04-28T04:54:13.678Z,11.51
2023-04-28T04:56:42.931Z,11.52
2023-04-28T04:59:11.105Z,11.53
2023-04-28T05:01:50.327Z,11.52
2023-04-28T05:04:18.134Z,11.51
2023-04-28T05:06:46.175Z,11.51
2023-04-28T05:09:13.529Z,11.52
2023-04-28T05:11:41.504Z,11.54
2023-04-28T05:14:08.754Z,11.56
2023-04-28T05:16:38.196Z,11.58
2023-04-28T05:19:26.504Z,11.60
2023-04-28T05:21:55.166Z,11.62
2023-04-28T05:24:25.837Z,11.64
2023-04-28T05:26:54.343Z,11.67
2023-04-28T05:29:22.278Z,11.69
2023-04-28T05:31:49.820Z,11.72
2023-04-28T05:34:17.964Z,11.75
2023-04-28T05:36:45.568Z,11.79
2023-04-28T05:39:13.136Z,11.82
2023-04-28T05:41:41.501Z,11.84
2023-04-28T05:44:09.059Z,11.86
2023-04-28T05:46:37.217Z,11.87
2023-04-28T05:49:04.897Z,11.90
2023-04-28T05:51:34.298Z,11.92
2023-04-28T05:54:02.265Z,11.93
2023-04-28T06:08:42.514Z,12.26
2023-04-28T06:11:09.984Z,12.36
2023-04-28T06:13:37.432Z,12.37
2023-04-28T06:16:05.337Z,12.35
2023-04-28T06:18:35.820Z,12.35
2023-04-28T06:21:04.410Z,12.33
2023-04-28T06:23:31.767Z,12.28
2023-04-28T06:25:59.120Z,12.22
2023-04-28T06:28:26.368Z,12.21
2023-04-28T06:30:53.857Z,12.18
2023-04-28T06:33:21.280Z,12.16
2023-04-28T06:35:48.533Z,12.13
2023-04-28T06:38:16.606Z,12.10
2023-04-28T06:40:46.020Z,12.08
2023-04-28T06:43:13.359Z,12.04
2023-04-28T06:46:04.883Z,11.99
2023-04-28T06:48:32.342Z,11.95
2023-04-28T06:50:59.691Z,11.94
2023-04-28T06:53:27.052Z,11.92
2023-04-28T06:55:54.397Z,11.90
2023-04-28T06:58:22.064Z,11.89
2023-04-28T07:00:49.433Z,11.88
2023-04-28T07:03:17.069Z,11.88
2023-04-28T07:05:44.534Z,11.90
2023-04-28T07:08:11.891Z,11.93
2023-04-28T07:10:39.760Z,11.96
2023-04-28T07:13:07.659Z,12.00
2023-04-28T07:15:35.285Z,12.04
2023-04-28T07:18:02.961Z,12.07
2023-04-28T07:20:30.404Z,12.06
2023-04-28T07:22:57.783Z,12.04
2023-04-28T07:25:25.115Z,12.05
2023-04-28T07:27:52.672Z,12.07
2023-04-28T07:32:53.053Z,12.12
2023-04-28T07:35:20.514Z,12.15
2023-04-28T07:37:47.835Z,12.18
2023-04-28T07:40:15.092Z,12.21
2023-04-28T07:42:42.697Z,12.22
2023-04-28T07:45:10.210Z,12.24
2023-04-28T07:47:37.855Z,12.26
2023-04-28T07:50:06.889Z,12.28
2023-04-28T07:52:34.326Z,12.29
2023-04-28T07:55:03.177Z,12.31
2023-04-28T07:57:31.064Z,12.32
2023-04-28T07:59:58.422Z,12.34
2023-04-28T08:02:27.631Z,12.38
2023-04-28T08:04:55.301Z,12.42
2023-04-28T08:07:23.251Z,12.46
2023-04-28T08:09:52.123Z,12.50
2023-04-28T08:12:22.570Z,12.53
2023-04-28T08:14:49.958Z,12.53
2023-04-28T08:17:18.193Z,12.56
2023-04-28T08:19:46.679Z,12.62
2023-04-28T08:22:14.024Z,12.69
2023-04-28T08:24:41.696Z,12.77
2023-04-28T08:27:09.154Z,12.85
2023-04-28T08:29:36.508Z,12.93
2023-04-28T08:32:06.799Z,13.00
2023-04-28T08:34:34.384Z,13.07
2023-04-28T08:37:01.960Z,13.15
2023-04-28T08:39:29.600Z,13.18
2023-04-28T08:41:57.174Z,13.20
2023-04-28T08:44:24.673Z,13.21
2023-04-28T08:46:52.645Z,13.22
2023-04-28T08:49:21.040Z,13.23
2023-04-28T08:51:59.356Z,13.23
2023-04-28T08:54:32.358Z,13.25
2023-04-28T08:57:00.167Z,13.28
2023-04-28T08:59:27.723Z,13.27
2023-04-28T09:01:55.242Z,13.24
2023-04-28T09:04:22.953Z,13.20
2023-04-28T09:06:50.785Z,13.18
2023-04-28T09:09:25.390Z,13.15
2023-04-28T09:11:53.795Z,13.14
2023-04-28T09:14:21.342Z,13.12
2023-04-28T09:16:49.425Z,13.11
2023-04-28T09:19:17.789Z,13.11
2023-04-28T09:21:56.081Z,13.10
2023-04-28T09:24:31.397Z,13.10
2023-04-28T09:27:02.798Z,13.12
2023-04-28T09:29:33.854Z,13.13
2023-04-28T09:32:28.919Z,13.12
2023-04-28T09:35:00.002Z,13.11
2023-04-28T09:37:31.060Z,13.12
2023-04-28T09:40:07.498Z,13.15
2023-04-28T09:42:37.927Z,13.23
2023-04-28T09:45:10.075Z,13.34
2023-04-28T09:47:41.579Z,13.46
2023-04-28T09:50:12.858Z,13.57
2023-04-28T09:52:45.574Z,13.68
2023-04-28T09:55:13.742Z,13.76
2023-04-28T09:57:41.513Z,13.82
2023-04-28T10:00:09.759Z,13.85
2023-04-28T10:05:10.587Z,13.90
2023-04-28T10:07:39.632Z,13.90
2023-04-28T10:10:08.523Z,13.84
2023-04-28T10:12:38.964Z,13.79
2023-04-28T10:15:08.707Z,13.74
2023-04-28T10:17:37.087Z,13.70
2023-04-28T10:20:05.561Z,13.68
2023-04-28T10:22:37.374Z,13.64
2023-04-28T10:25:14.546Z,13.58
2023-04-28T10:27:46.522Z,13.53
2023-04-28T10:32:48.947Z,13.40
2023-04-28T10:35:23.328Z,13.35
2023-04-28T10:38:08.629Z,13.27
2023-04-28T10:40:36.884Z,13.23
2023-04-28T10:43:04.544Z,13.20
2023-04-28T10:45:58.399Z,13.18
2023-04-28T10:48:37.252Z,13.15
2023-04-28T10:51:04.819Z,13.12
2023-04-28T10:53:44.775Z,13.09
2023-04-28T10:56:18.146Z,13.04
2023-04-28T10:58:49.613Z,13.00
2023-04-28T11:01:25.220Z,12.99
2023-04-28T11:04:14.165Z,12.97
2023-04-28T11:06:43.920Z,12.90
2023-04-28T11:09:20.321Z,12.88
2023-04-28T11:12:00.807Z,12.87
2023-04-28T11:14:33.224Z,12.88
2023-04-28T11:17:05.486Z,12.88
2023-04-28T11:19:45.659Z,12.90
2023-04-28T11:22:18.241Z,12.92
2023-04-28T11:25:05.906Z,12.94
2023-04-28T11:27:33.968Z,12.95
2023-04-28T11:30:26.964Z,12.95
2023-04-28T11:32:54.506Z,12.95
2023-04-28T11:35:22.223Z,12.93
2023-04-28T11:38:04.428Z,12.95
2023-04-28T11:40:31.748Z,12.98
2023-04-28T11:43:09.102Z,12.99
2023-04-28T11:45:54.812Z,12.98
2023-04-28T11:48:25.066Z,12.97
2023-04-28T11:50:52.477Z,12.91
2023-04-28T11:53:22.148Z,12.85
2023-04-28T11:55:51.024Z,12.79
2023-04-28T11:58:24.054Z,12.75
2023-04-28T12:01:11.453Z,12.67
2023-04-28T12:03:46.086Z,12.60
2023-04-28T12:06:21.117Z,12.53
2023-04-28T12:08:49.563Z,12.46
2023-04-28T12:11:19.961Z,12.42
2023-04-28T12:14:07.572Z,12.39
2023-04-28T12:16:40.303Z,12.36
2023-04-28T12:19:10.516Z,12.35
2023-04-28T12:21:39.582Z,12.34
2023-04-28T12:24:17.429Z,12.30
2023-04-28T12:26:44.817Z,12.27
2023-04-28T12:29:39.348Z,12.25
2023-04-28T12:32:08.341Z,12.19
2023-04-28T12:34:36.518Z,12.15
2023-04-28T12:37:06.009Z,12.12
2023-04-28T12:39:36.401Z,12.10
2023-04-28T12:42:05.244Z,12.09
2023-04-28T12:44:35.880Z,12.10
2023-04-28T12:47:05.281Z,12.11
2023-04-28T12:49:32.945Z,12.11
2023-04-28T12:52:00.375Z,12.10
2023-04-28T12:54:27.793Z,12.05
2023-04-28T12:56:55.161Z,11.99
2023-04-28T12:59:23.147Z,11.93
2023-04-28T13:01:50.998Z,11.88
2023-04-28T13:04:19.349Z,11.84
2023-04-28T13:06:47.321Z,11.83
2023-04-28T13:09:17.915Z,11.83
2023-04-28T13:11:46.536Z,11.79
2023-04-28T13:14:13.864Z,11.76
2023-04-28T13:16:41.402Z,11.73
2023-04-28T13:19:11.166Z,11.70
2023-04-28T13:21:39.510Z,11.67
2023-04-28T13:24:07.304Z,11.63
2023-04-28T13:26:34.598Z,11.59
2023-04-28T13:29:02.729Z,11.55
2023-04-28T13:31:30.606Z,11.50
2023-04-28T13:33:58.171Z,11.47
2023-04-28T13:36:26.124Z,11.44
2023-04-28T13:38:53.360Z,11.38
2023-04-28T13:41:21.506Z,11.35
2023-04-28T13:43:48.822Z,11.32
2023-04-28T13:46:16.721Z,11.29
2023-04-28T13:48:44.331Z,11.27
2023-04-28T13:51:11.693Z,11.27
2023-04-28T13:53:39.145Z,11.25
2023-04-28T13:56:07.078Z,11.22
2023-04-28T13:58:34.456Z,11.20
2023-04-28T14:01:01.777Z,11.19
2023-04-28T14:03:29.210Z,11.18
2023-04-28T14:05:58.303Z,11.18
2023-04-28T14:08:27.768Z,11.21
2023-04-28T14:10:55.358Z,11.20
2023-04-28T14:13:22.706Z,11.18
2023-04-28T14:15:58.663Z,11.17
2023-04-28T14:18:28.078Z,11.12
2023-04-28T14:20:55.977Z,11.08
2023-04-28T14:23:23.452Z,11.07
2023-04-28T14:25:55.220Z,11.07
2023-04-28T14:28:22.961Z,11.05
2023-04-28T14:30:50.396Z,11.01
2023-04-28T14:33:17.852Z,11.00
2023-04-28T14:35:45.078Z,10.99
2023-04-28T14:38:13.850Z,10.99
2023-04-28T14:40:43.894Z,10.98
2023-04-28T14:43:14.585Z,10.98
2023-04-28T14:45:42.293Z,10.97
2023-04-28T14:48:10.783Z,10.95
2023-04-28T14:50:38.095Z,10.94
2023-04-28T14:53:08.628Z,10.93
2023-04-28T14:55:35.854Z,10.92
2023-04-28T14:58:03.174Z,10.90
2023-04-28T15:00:31.646Z,10.87
2023-04-28T15:02:59.353Z,10.84
2023-04-28T15:05:27.516Z,10.80
2023-04-28T15:07:54.747Z,10.77
2023-04-28T15:10:22.240Z,10.76
2023-04-28T15:12:49.915Z,10.74
2023-04-28T15:15:17.175Z,10.71
2023-04-28T15:17:45.717Z,10.67
2023-04-28T15:20:13.166Z,10.64
2023-04-28T15:22:41.285Z,10.66
2023-04-28T15:25:08.870Z,10.64
2023-04-28T15:27:36.876Z,10.63
2023-04-28T15:30:04.724Z,10.61
2023-04-28T15:32:32.731Z,10.59
2023-04-28T15:35:00.595Z,10.58
2023-04-28T15:37:37.379Z,10.58
2023-04-28T15:40:09.489Z,10.58
2023-04-28T15:42:37.942Z,10.55
2023-04-28T15:45:06.482Z,10.51
2023-04-28T15:47:33.805Z,10.46
2023-04-28T15:50:01.043Z,10.43
2023-04-28T15:52:28.356Z,10.41
2023-04-28T15:54:56.198Z,10.37
2023-04-28T15:57:23.436Z,10.33
2023-04-28T15:59:52.031Z,10.31
2023-04-28T16:02:19.488Z,10.29
2023-04-28T16:04:47.137Z,10.28
2023-04-28T16:07:14.554Z,10.26
2023-04-28T16:09:41.905Z,10.26
2023-04-28T16:12:09.978Z,10.26
2023-04-28T16:14:37.845Z,10.25
2023-04-28T16:17:05.263Z,10.21
2023-04-28T16:19:32.997Z,10.19
2023-04-28T16:22:01.713Z,10.16
2023-04-28T16:24:29.920Z,10.16
2023-04-28T16:26:57.308Z,10.13
2023-04-28T16:29:24.938Z,10.10
2023-04-28T16:31:52.784Z,10.08
2023-04-28T16:34:20.262Z,10.05
2023-04-28T16:36:47.717Z,10.05
2023-04-28T16:39:16.102Z,10.03
2023-04-28T16:41:43.448Z,10.02
2023-04-28T16:44:11.753Z,10.00
2023-04-28T16:46:39.900Z,9.98
2023-04-28T16:49:07.252Z,9.96
2023-04-28T16:51:34.555Z,9.95
2023-04-28T16:54:02.173Z,9.92
2023-04-28T16:56:29.649Z,9.91
2023-04-28T16:58:56.811Z,9.91
2023-04-28T17:01:24.104Z,9.90
2023-04-28T17:03:51.843Z,9.89
2023-04-28T17:06:19.329Z,9.87
2023-04-28T17:08:46.856Z,9.84
2023-04-28T17:11:16.755Z,9.82
2023-04-28T17:13:43.965Z,9.80
2023-04-28T17:16:11.845Z,9.78
2023-04-28T17:18:39.162Z,9.76
2023-04-28T17:21:06.582Z,9.76
2023-04-28T17:23:33.819Z,9.74
2023-04-28T17:26:03.441Z,9.72
2023-04-28T17:28:31.639Z,9.70
2023-04-28T17:30:59.288Z,9.67
2023-04-28T17:33:26.554Z,9.65
2023-04-28T17:35:53.806Z,9.62
2023-04-28T17:38:21.370Z,9.60
2023-04-28T17:40:49.100Z,9.58
2023-04-28T17:43:17.095Z,9.55
2023-04-28T17:45:44.381Z,9.53
2023-04-28T17:48:12.788Z,9.52
2023-04-28T17:50:40.072Z,9.49
2023-04-28T17:53:07.545Z,9.47
2023-04-28T17:55:34.785Z,9.45
2023-04-28T17:58:02.031Z,9.43
2023-04-28T18:00:29.325Z,9.41
2023-04-28T18:02:56.611Z,9.40
2023-04-28T18:05:24.710Z,9.39
2023-04-28T18:07:52.478Z,9.37
2023-04-28T18:10:19.738Z,9.35
2023-04-28T18:12:47.395Z,9.33
2023-04-28T18:15:14.938Z,9.30
2023-04-28T18:17:42.175Z,9.28
2023-04-28T18:20:10.160Z,9.26
2023-04-28T18:22:37.938Z,9.25
2023-04-28T18:25:05.524Z,9.22
2023-04-28T18:27:32.792Z,9.20
2023-04-28T18:30:00.079Z,9.19
2023-04-28T18:32:29.330Z,9.18
2023-04-28T18:34:57.115Z,9.17
2023-04-28T18:37:24.413Z,9.19
2023-04-28T18:39:56.490Z,9.20
2023-04-28T18:42:24.149Z,9.19
2023-04-28T18:44:56.608Z,9.18
2023-04-28T18:47:24.212Z,9.16
2023-04-28T18:49:52.243Z,9.16
2023-04-28T18:52:19.494Z,9.13
2023-04-28T18:54:46.712Z,9.12
2023-04-28T18:57:14.377Z,9.10
2023-04-28T18:59:41.721Z,9.07
2023-04-28T19:02:09.379Z,9.05
2023-04-28T19:04:39.401Z,9.02
2023-04-28T19:07:06.853Z,8.99
2023-04-28T19:09:34.203Z,8.99
2023-04-28T19:12:01.560Z,8.97
2023-04-28T19:14:28.915Z,8.96
2023-04-28T19:16:56.310Z,8.94
2023-04-28T19:19:23.625Z,8.92
2023-04-28T19:21:51.079Z,8.89
2023-04-28T19:24:18.433Z,8.87
2023-04-28T19:26:45.684Z,8.86
2023-04-28T19:29:17.397Z,8.86
2023-04-28T19:31:45.105Z,8.86
2023-04-28T19:34:12.364Z,8.85
2023-04-28T19:36:39.713Z,8.85
2023-04-28T19:39:08.497Z,8.83
2023-04-28T19:41:36.676Z,8.82
2023-04-28T19:44:04.648Z,8.81
2023-04-28T19:46:32.147Z,8.82
2023-04-28T19:48:59.453Z,8.81
2023-04-28T19:51:27.320Z,8.80
2023-04-28T19:53:55.500Z,8.80
2023-04-28T19:56:22.846Z,8.80
2023-04-28T19:58:50.306Z,8.80
2023-04-28T20:01:17.686Z,8.78
2023-04-28T20:03:45.172Z,8.79
2023-04-28T20:06:17.703Z,8.80
2023-04-28T20:08:46.073Z,8.78
2023-04-28T20:11:13.434Z,8.76
2023-04-28T20:13:40.785Z,8.75
2023-04-28T20:16:08.194Z,8.73
2023-04-28T20:18:35.897Z,8.73
2023-04-28T20:21:03.877Z,8.73
2023-04-28T20:23:31.223Z,8.73
2023-04-28T20:25:59.602Z,8.73
2023-04-28T20:28:26.958Z,8.72
2023-04-28T20:30:54.214Z,8.72
2023-04-28T20:33:21.563Z,8.72
2023-04-28T20:35:48.915Z,8.71
2023-04-28T20:38:16.177Z,8.71
2023-04-28T20:40:44.558Z,8.71
2023-04-28T20:43:11.903Z,8.71
2023-04-28T20:45:42.122Z,8.70
2023-04-28T20:48:09.438Z,8.69
2023-04-28T20:50:41.453Z,8.67
2023-04-28T20:53:09.454Z,8.66
2023-04-28T20:55:36.767Z,8.67
2023-04-28T20:58:04.016Z,8.66
2023-04-28T21:00:34.004Z,8.65
2023-04-28T21:03:05.053Z,8.64
2023-04-28T21:05:32.737Z,8.63
2023-04-28T21:07:59.992Z,8.60
2023-04-28T21:10:28.161Z,8.58
2023-04-28T21:12:55.615Z,8.58
2023-04-28T21:15:22.870Z,8.58
2023-04-28T21:17:50.143Z,8.58
2023-04-28T21:20:17.578Z,8.58
2023-04-28T21:22:45.158Z,8.58
2023-04-28T21:25:12.603Z,8.57
2023-04-28T21:27:40.158Z,8.56
2023-04-28T21:30:10.562Z,8.55
2023-04-28T21:32:39.211Z,8.53
2023-04-28T21:35:07.132Z,8.52
2023-04-28T21:37:34.495Z,8.51
2023-04-28T21:40:02.354Z,8.49
2023-04-28T21:42:32.068Z,8.50
2023-04-28T21:44:59.429Z,8.49
2023-04-28T21:47:26.820Z,8.48
2023-04-28T21:49:54.437Z,8.47
2023-04-28T21:52:21.689Z,8.46
2023-04-28T21:54:49.045Z,8.45
2023-04-28T21:57:16.402Z,8.44
2023-04-28T21:59:44.367Z,8.44
2023-04-28T22:02:12.977Z,8.43
2023-04-28T22:04:40.609Z,8.42
2023-04-28T22:07:08.275Z,8.41
2023-04-28T22:09:35.631Z,8.41
2023-04-28T22:12:02.984Z,8.40
2023-04-28T22:17:00.973Z,8.38
2023-04-28T22:19:28.429Z,8.36
2023-04-28T22:21:55.674Z,8.34
2023-04-28T22:24:23.033Z,8.33
2023-04-28T22:26:50.490Z,8.32
2023-04-28T22:29:17.841Z,8.32
2023-04-28T22:31:45.228Z,8.32
2023-04-28T22:34:12.552Z,8.31
2023-04-28T22:36:40.006Z,8.30
2023-04-28T22:39:07.667Z,8.30
2023-04-28T22:41:34.917Z,8.30
2023-04-28T22:44:03.107Z,8.30
2023-04-28T22:46:30.779Z,8.30
2023-04-28T22:48:58.416Z,8.30
2023-04-28T22:51:26.690Z,8.30
2023-04-28T22:53:54.659Z,8.30
2023-04-28T22:56:22.024Z,8.31
2023-04-28T22:58:49.673Z,8.30
2023-04-28T23:01:16.966Z,8.30
2023-04-28T23:03:45.063Z,8.28
2023-04-28T23:06:12.558Z,8.28
2023-04-28T23:08:40.019Z,8.28
2023-04-28T23:11:07.377Z,8.28
2023-04-28T23:13:34.729Z,8.28
2023-04-28T23:16:02.202Z,8.27
2023-04-28T23:18:31.821Z,8.26
2023-04-28T23:20:59.448Z,8.26
2023-04-28T23:23:26.710Z,8.26
2023-04-28T23:25:55.853Z,8.26
2023-04-28T23:28:23.155Z,8.27
2023-04-28T23:30:50.505Z,8.28
2023-04-28T23:33:17.965Z,8.29
2023-04-28T23:35:45.224Z,8.29
2023-04-28T23:38:12.770Z,8.29
2023-04-28T23:40:40.341Z,8.28
2023-04-28T23:43:07.587Z,8.26
2023-04-28T23:45:34.874Z,8.26
2023-04-28T23:48:02.364Z,8.25
2023-04-28T23:50:29.852Z,8.25
2023-04-28T23:52:57.833Z,8.24
2023-04-28T23:55:25.172Z,8.22
2023-04-28T23:57:52.424Z,8.22
